sensor_id;sensor_type;location;lat;lon;timestamp;P1;durP1;ratioP1;P2;durP2;ratioP2
5813;SDS011;2933;52.302;8.134;2023-05-14T00:04:50;6.60;;;6.00;;
5813;SDS011;2933;52.302;8.134;2023-05-14T00:09:52;7.73;;;6.53;;
5813;SDS011;2933;52.302;8.134;2023-05-14T00:14:54;6.50;;;5.90;;
5813;SDS011;2933;52.302;8.134;2023-05-14T00:19:56;6.43;;;5.83;;
5813;SDS011;2933;52.302;8.134;2023-05-14T00:24:59;10.10;;;6.00;;
5813;SDS011;2933;52.302;8.134;2023-05-14T00:30:01;6.83;;;6.17;;
5813;SDS011;2933;52.302;8.134;2023-05-14T00:35:05;7.03;;;6.20;;
5813;SDS011;2933;52.302;8.134;2023-05-14T00:40:08;9.83;;;6.90;;
5813;SDS011;2933;52.302;8.134;2023-05-14T00:45:11;9.03;;;5.90;;
5813;SDS011;2933;52.302;8.134;2023-05-14T00:50:14;7.40;;;6.70;;
5813;SDS011;2933;52.302;8.134;2023-05-14T00:55:18;11.73;;;6.13;;
5813;SDS011;2933;52.302;8.134;2023-05-14T01:00:21;7.07;;;5.43;;
5813;SDS011;2933;52.302;8.134;2023-05-14T01:05:23;6.57;;;6.00;;
5813;SDS011;2933;52.302;8.134;2023-05-14T01:10:31;7.70;;;6.20;;
5813;SDS011;2933;52.302;8.134;2023-05-14T01:15:39;6.90;;;6.30;;
5813;SDS011;2933;52.302;8.134;2023-05-14T01:20:41;12.53;;;6.77;;
5813;SDS011;2933;52.302;8.134;2023-05-14T01:25:45;7.30;;;6.60;;
5813;SDS011;2933;52.302;8.134;2023-05-14T01:30:48;9.23;;;5.73;;
5813;SDS011;2933;52.302;8.134;2023-05-14T01:35:53;7.30;;;6.60;;
5813;SDS011;2933;52.302;8.134;2023-05-14T01:40:56;6.10;;;5.60;;
5813;SDS011;2933;52.302;8.134;2023-05-14T01:45:59;6.87;;;6.23;;
5813;SDS011;2933;52.302;8.134;2023-05-14T01:51:01;7.20;;;6.20;;
5813;SDS011;2933;52.302;8.134;2023-05-14T01:56:04;10.73;;;6.20;;
5813;SDS011;2933;52.302;8.134;2023-05-14T02:01:07;16.67;;;5.27;;
5813;SDS011;2933;52.302;8.134;2023-05-14T02:06:09;7.83;;;5.70;;
5813;SDS011;2933;52.302;8.134;2023-05-14T02:11:12;5.40;;;5.00;;
5813;SDS011;2933;52.302;8.134;2023-05-14T02:16:13;16.00;;;5.83;;
5813;SDS011;2933;52.302;8.134;2023-05-14T02:21:15;5.90;;;5.50;;
5813;SDS011;2933;52.302;8.134;2023-05-14T02:26:18;12.67;;;6.07;;
5813;SDS011;2933;52.302;8.134;2023-05-14T02:31:20;7.10;;;6.40;;
5813;SDS011;2933;52.302;8.134;2023-05-14T02:36:21;8.53;;;5.87;;
5813;SDS011;2933;52.302;8.134;2023-05-14T02:41:24;6.20;;;5.60;;
5813;SDS011;2933;52.302;8.134;2023-05-14T02:46:26;6.53;;;5.93;;
5813;SDS011;2933;52.302;8.134;2023-05-14T02:51:28;6.40;;;5.90;;
5813;SDS011;2933;52.302;8.134;2023-05-14T02:56:30;6.73;;;6.10;;
5813;SDS011;2933;52.302;8.134;2023-05-14T03:01:32;8.33;;;5.70;;
5813;SDS011;2933;52.302;8.134;2023-05-14T03:06:33;8.87;;;6.00;;
5813;SDS011;2933;52.302;8.134;2023-05-14T03:11:36;6.83;;;6.20;;
5813;SDS011;2933;52.302;8.134;2023-05-14T03:16:38;14.47;;;5.90;;
5813;SDS011;2933;52.302;8.134;2023-05-14T03:21:41;6.13;;;5.53;;
5813;SDS011;2933;52.302;8.134;2023-05-14T03:26:44;6.93;;;5.63;;
5813;SDS011;2933;52.302;8.134;2023-05-14T03:31:45;5.70;;;5.20;;
5813;SDS011;2933;52.302;8.134;2023-05-14T03:36:47;7.93;;;6.50;;
5813;SDS011;2933;52.302;8.134;2023-05-14T03:41:50;6.23;;;5.63;;
5813;SDS011;2933;52.302;8.134;2023-05-14T03:46:51;6.30;;;5.20;;
5813;SDS011;2933;52.302;8.134;2023-05-14T03:51:53;7.63;;;5.90;;
5813;SDS011;2933;52.302;8.134;2023-05-14T03:56:56;6.23;;;5.63;;
5813;SDS011;2933;52.302;8.134;2023-05-14T04:01:57;5.60;;;5.10;;
5813;SDS011;2933;52.302;8.134;2023-05-14T04:06:59;6.23;;;5.77;;
5813;SDS011;2933;52.302;8.134;2023-05-14T04:12:02;6.50;;;5.80;;
5813;SDS011;2933;52.302;8.134;2023-05-14T04:17:04;6.37;;;5.77;;
5813;SDS011;2933;52.302;8.134;2023-05-14T04:22:05;7.23;;;6.07;;
5813;SDS011;2933;52.302;8.134;2023-05-14T04:27:08;7.70;;;6.17;;
5813;SDS011;2933;52.302;8.134;2023-05-14T04:32:10;9.73;;;6.00;;
5813;SDS011;2933;52.302;8.134;2023-05-14T04:37:11;6.70;;;6.10;;
5813;SDS011;2933;52.302;8.134;2023-05-14T04:42:14;6.60;;;6.00;;
5813;SDS011;2933;52.302;8.134;2023-05-14T04:47:15;6.90;;;6.20;;
5813;SDS011;2933;52.302;8.134;2023-05-14T04:52:17;8.83;;;6.30;;
5813;SDS011;2933;52.302;8.134;2023-05-14T04:57:20;6.30;;;5.77;;
5813;SDS011;2933;52.302;8.134;2023-05-14T05:02:21;8.60;;;6.37;;
5813;SDS011;2933;52.302;8.134;2023-05-14T05:07:23;7.00;;;6.30;;
5813;SDS011;2933;52.302;8.134;2023-05-14T05:12:26;8.13;;;6.60;;
5813;SDS011;2933;52.302;8.134;2023-05-14T05:17:29;9.13;;;6.93;;
5813;SDS011;2933;52.302;8.134;2023-05-14T05:22:30;11.47;;;6.83;;
5813;SDS011;2933;52.302;8.134;2023-05-14T05:27:33;7.77;;;6.23;;
5813;SDS011;2933;52.302;8.134;2023-05-14T05:32:35;11.03;;;6.77;;
5813;SDS011;2933;52.302;8.134;2023-05-14T05:37:36;9.00;;;7.00;;
5813;SDS011;2933;52.302;8.134;2023-05-14T05:42:39;7.70;;;6.83;;
5813;SDS011;2933;52.302;8.134;2023-05-14T05:47:41;8.10;;;6.97;;
5813;SDS011;2933;52.302;8.134;2023-05-14T05:52:43;9.00;;;7.40;;
5813;SDS011;2933;52.302;8.134;2023-05-14T05:57:46;8.87;;;6.90;;
5813;SDS011;2933;52.302;8.134;2023-05-14T06:02:47;11.53;;;7.67;;
5813;SDS011;2933;52.302;8.134;2023-05-14T06:07:49;7.60;;;6.80;;
5813;SDS011;2933;52.302;8.134;2023-05-14T06:12:52;8.57;;;7.00;;
5813;SDS011;2933;52.302;8.134;2023-05-14T06:17:53;7.93;;;7.13;;
5813;SDS011;2933;52.302;8.134;2023-05-14T06:22:55;6.83;;;6.13;;
5813;SDS011;2933;52.302;8.134;2023-05-14T06:27:58;8.60;;;6.53;;
5813;SDS011;2933;52.302;8.134;2023-05-14T06:32:59;6.87;;;5.80;;
5813;SDS011;2933;52.302;8.134;2023-05-14T06:38:01;7.77;;;6.13;;
5813;SDS011;2933;52.302;8.134;2023-05-14T06:43:04;7.10;;;6.33;;
5813;SDS011;2933;52.302;8.134;2023-05-14T06:48:06;10.00;;;6.40;;
5813;SDS011;2933;52.302;8.134;2023-05-14T06:53:09;6.87;;;6.27;;
5813;SDS011;2933;52.302;8.134;2023-05-14T06:58:12;6.57;;;5.87;;
5813;SDS011;2933;52.302;8.134;2023-05-14T07:03:13;10.40;;;6.03;;
5813;SDS011;2933;52.302;8.134;2023-05-14T07:08:15;6.30;;;5.63;;
5813;SDS011;2933;52.302;8.134;2023-05-14T07:13:18;6.50;;;5.27;;
5813;SDS011;2933;52.302;8.134;2023-05-14T07:18:19;5.90;;;5.00;;
5813;SDS011;2933;52.302;8.134;2023-05-14T07:23:21;5.10;;;4.70;;
5813;SDS011;2933;52.302;8.134;2023-05-14T07:28:24;4.93;;;4.00;;
5813;SDS011;2933;52.302;8.134;2023-05-14T07:33:25;4.97;;;4.47;;
5813;SDS011;2933;52.302;8.134;2023-05-14T07:38:27;4.50;;;4.13;;
5813;SDS011;2933;52.302;8.134;2023-05-14T07:43:30;4.63;;;4.20;;
5813;SDS011;2933;52.302;8.134;2023-05-14T07:48:31;4.27;;;3.97;;
5813;SDS011;2933;52.302;8.134;2023-05-14T07:53:33;4.80;;;3.60;;
5813;SDS011;2933;52.302;8.134;2023-05-14T07:58:36;4.23;;;4.03;;
5813;SDS011;2933;52.302;8.134;2023-05-14T08:03:37;3.90;;;3.70;;
5813;SDS011;2933;52.302;8.134;2023-05-14T08:08:39;4.23;;;3.43;;
5813;SDS011;2933;52.302;8.134;2023-05-14T08:13:42;3.97;;;3.70;;
5813;SDS011;2933;52.302;8.134;2023-05-14T08:18:43;3.50;;;3.30;;
5813;SDS011;2933;52.302;8.134;2023-05-14T08:23:45;3.93;;;2.90;;
5813;SDS011;2933;52.302;8.134;2023-05-14T08:28:48;3.67;;;2.73;;
5813;SDS011;2933;52.302;8.134;2023-05-14T08:33:49;2.43;;;2.33;;
5813;SDS011;2933;52.302;8.134;2023-05-14T08:38:51;3.93;;;2.10;;
5813;SDS011;2933;52.302;8.134;2023-05-14T08:43:56;2.13;;;2.03;;
5813;SDS011;2933;52.302;8.134;2023-05-14T08:49:12;2.43;;;2.30;;
5813;SDS011;2933;52.302;8.134;2023-05-14T08:54:17;2.00;;;1.90;;
5813;SDS011;2933;52.302;8.134;2023-05-14T08:59:22;5.60;;;1.97;;
5813;SDS011;2933;52.302;8.134;2023-05-14T09:04:24;3.53;;;1.80;;
5813;SDS011;2933;52.302;8.134;2023-05-14T09:09:26;3.53;;;2.00;;
5813;SDS011;2933;52.302;8.134;2023-05-14T09:14:29;2.30;;;2.20;;
5813;SDS011;2933;52.302;8.134;2023-05-14T09:19:31;2.50;;;2.40;;
5813;SDS011;2933;52.302;8.134;2023-05-14T09:24:32;2.20;;;2.00;;
5813;SDS011;2933;52.302;8.134;2023-05-14T09:29:35;3.37;;;2.10;;
5813;SDS011;2933;52.302;8.134;2023-05-14T09:34:37;2.33;;;2.23;;
5813;SDS011;2933;52.302;8.134;2023-05-14T09:39:40;2.10;;;2.00;;
5813;SDS011;2933;52.302;8.134;2023-05-14T09:44:44;6.63;;;2.30;;
5813;SDS011;2933;52.302;8.134;2023-05-14T09:49:47;2.00;;;1.90;;
5813;SDS011;2933;52.302;8.134;2023-05-14T09:54:49;3.53;;;1.97;;
5813;SDS011;2933;52.302;8.134;2023-05-14T09:59:53;2.70;;;2.60;;
5813;SDS011;2933;52.302;8.134;2023-05-14T10:04:55;2.90;;;2.80;;
5813;SDS011;2933;52.302;8.134;2023-05-14T10:10:01;2.73;;;2.53;;
5813;SDS011;2933;52.302;8.134;2023-05-14T10:15:11;2.23;;;2.13;;
5813;SDS011;2933;52.302;8.134;2023-05-14T10:20:16;3.77;;;2.30;;
5813;SDS011;2933;52.302;8.134;2023-05-14T10:25:19;2.13;;;2.03;;
5813;SDS011;2933;52.302;8.134;2023-05-14T10:30:22;2.20;;;2.10;;
5813;SDS011;2933;52.302;8.134;2023-05-14T10:35:24;2.60;;;2.50;;
5813;SDS011;2933;52.302;8.134;2023-05-14T10:40:26;1.60;;;1.60;;
5813;SDS011;2933;52.302;8.134;2023-05-14T10:45:29;2.63;;;2.53;;
5813;SDS011;2933;52.302;8.134;2023-05-14T10:50:33;2.67;;;2.43;;
5813;SDS011;2933;52.302;8.134;2023-05-14T10:55:35;1.97;;;1.83;;
5813;SDS011;2933;52.302;8.134;2023-05-14T11:00:38;2.63;;;2.53;;
5813;SDS011;2933;52.302;8.134;2023-05-14T11:05:39;7.60;;;1.80;;
5813;SDS011;2933;52.302;8.134;2023-05-14T11:10:41;2.13;;;2.03;;
5813;SDS011;2933;52.302;8.134;2023-05-14T11:15:44;2.03;;;1.93;;
5813;SDS011;2933;52.302;8.134;2023-05-14T11:20:48;1.63;;;1.63;;
5813;SDS011;2933;52.302;8.134;2023-05-14T11:25:50;1.77;;;1.67;;
5813;SDS011;2933;52.302;8.134;2023-05-14T11:30:53;1.90;;;1.80;;
5813;SDS011;2933;52.302;8.134;2023-05-14T11:35:55;1.97;;;1.87;;
5813;SDS011;2933;52.302;8.134;2023-05-14T11:40:57;2.23;;;1.87;;
5813;SDS011;2933;52.302;8.134;2023-05-14T11:46:00;1.90;;;1.80;;
5813;SDS011;2933;52.302;8.134;2023-05-14T11:51:03;2.00;;;1.90;;
5813;SDS011;2933;52.302;8.134;2023-05-14T11:56:04;2.10;;;2.00;;
5813;SDS011;2933;52.302;8.134;2023-05-14T12:01:08;2.00;;;1.90;;
5813;SDS011;2933;52.302;8.134;2023-05-14T12:06:13;2.00;;;1.63;;
5813;SDS011;2933;52.302;8.134;2023-05-14T12:11:19;2.87;;;1.60;;
5813;SDS011;2933;52.302;8.134;2023-05-14T12:16:22;2.00;;;1.90;;
5813;SDS011;2933;52.302;8.134;2023-05-14T12:21:23;1.67;;;1.67;;
5813;SDS011;2933;52.302;8.134;2023-05-14T12:26:27;1.80;;;1.70;;
5813;SDS011;2933;52.302;8.134;2023-05-14T12:31:33;1.70;;;1.57;;
5813;SDS011;2933;52.302;8.134;2023-05-14T12:36:36;1.80;;;1.70;;
5813;SDS011;2933;52.302;8.134;2023-05-14T12:41:37;1.80;;;1.60;;
5813;SDS011;2933;52.302;8.134;2023-05-14T12:46:40;1.73;;;1.63;;
5813;SDS011;2933;52.302;8.134;2023-05-14T12:51:42;3.73;;;1.87;;
5813;SDS011;2933;52.302;8.134;2023-05-14T12:56:43;1.80;;;1.70;;
5813;SDS011;2933;52.302;8.134;2023-05-14T13:01:46;1.80;;;1.70;;
5813;SDS011;2933;52.302;8.134;2023-05-14T13:06:48;1.30;;;1.30;;
5813;SDS011;2933;52.302;8.134;2023-05-14T13:11:51;2.20;;;1.60;;
5813;SDS011;2933;52.302;8.134;2023-05-14T13:16:54;1.70;;;1.60;;
5813;SDS011;2933;52.302;8.134;2023-05-14T13:21:55;1.97;;;1.87;;
5813;SDS011;2933;52.302;8.134;2023-05-14T13:26:57;2.60;;;2.07;;
5813;SDS011;2933;52.302;8.134;2023-05-14T13:31:59;1.90;;;1.80;;
5813;SDS011;2933;52.302;8.134;2023-05-14T13:37:01;2.23;;;1.90;;
5813;SDS011;2933;52.302;8.134;2023-05-14T13:42:03;4.23;;;1.87;;
5813;SDS011;2933;52.302;8.134;2023-05-14T13:47:06;2.60;;;2.50;;
5813;SDS011;2933;52.302;8.134;2023-05-14T13:52:08;5.10;;;1.60;;
5813;SDS011;2933;52.302;8.134;2023-05-14T13:57:09;3.40;;;3.20;;
5813;SDS011;2933;52.302;8.134;2023-05-14T14:02:12;2.00;;;1.80;;
5813;SDS011;2933;52.302;8.134;2023-05-14T14:07:14;3.10;;;2.87;;
5813;SDS011;2933;52.302;8.134;2023-05-14T14:12:16;1.90;;;1.80;;
5813;SDS011;2933;52.302;8.134;2023-05-14T14:17:18;1.80;;;1.70;;
5813;SDS011;2933;52.302;8.134;2023-05-14T14:22:20;3.30;;;3.10;;
5813;SDS011;2933;52.302;8.134;2023-05-14T14:27:22;2.27;;;2.17;;
5813;SDS011;2933;52.302;8.134;2023-05-14T14:32:24;2.20;;;2.10;;
5813;SDS011;2933;52.302;8.134;2023-05-14T14:37:26;3.10;;;1.77;;
5813;SDS011;2933;52.302;8.134;2023-05-14T14:42:28;2.00;;;1.90;;
5813;SDS011;2933;52.302;8.134;2023-05-14T14:47:31;2.60;;;1.90;;
5813;SDS011;2933;52.302;8.134;2023-05-14T14:52:32;1.77;;;1.67;;
5813;SDS011;2933;52.302;8.134;2023-05-14T14:57:35;2.00;;;1.90;;
5813;SDS011;2933;52.302;8.134;2023-05-14T15:02:37;1.93;;;1.73;;
5813;SDS011;2933;52.302;8.134;2023-05-14T15:07:41;2.83;;;2.63;;
5813;SDS011;2933;52.302;8.134;2023-05-14T15:12:43;1.90;;;1.80;;
5813;SDS011;2933;52.302;8.134;2023-05-14T15:17:46;1.90;;;1.77;;
5813;SDS011;2933;52.302;8.134;2023-05-14T15:22:47;1.80;;;1.70;;
5813;SDS011;2933;52.302;8.134;2023-05-14T15:27:51;1.67;;;1.57;;
5813;SDS011;2933;52.302;8.134;2023-05-14T15:32:54;1.80;;;1.70;;
5813;SDS011;2933;52.302;8.134;2023-05-14T15:37:55;1.70;;;1.60;;
5813;SDS011;2933;52.302;8.134;2023-05-14T15:42:57;1.87;;;1.67;;
5813;SDS011;2933;52.302;8.134;2023-05-14T15:48:00;1.87;;;1.77;;
5813;SDS011;2933;52.302;8.134;2023-05-14T15:53:01;6.20;;;3.27;;
5813;SDS011;2933;52.302;8.134;2023-05-14T15:58:03;2.10;;;2.00;;
5813;SDS011;2933;52.302;8.134;2023-05-14T16:03:06;2.27;;;2.07;;
5813;SDS011;2933;52.302;8.134;2023-05-14T16:08:08;2.50;;;2.40;;
5813;SDS011;2933;52.302;8.134;2023-05-14T16:13:10;7.83;;;5.73;;
5813;SDS011;2933;52.302;8.134;2023-05-14T16:18:13;2.40;;;2.20;;
5813;SDS011;2933;52.302;8.134;2023-05-14T16:23:14;2.10;;;1.90;;
5813;SDS011;2933;52.302;8.134;2023-05-14T16:28:16;1.67;;;1.67;;
5813;SDS011;2933;52.302;8.134;2023-05-14T16:33:19;1.97;;;1.87;;
5813;SDS011;2933;52.302;8.134;2023-05-14T16:38:23;1.60;;;1.50;;
5813;SDS011;2933;52.302;8.134;2023-05-14T16:43:24;1.80;;;1.70;;
5813;SDS011;2933;52.302;8.134;2023-05-14T16:48:27;2.00;;;1.90;;
5813;SDS011;2933;52.302;8.134;2023-05-14T16:53:29;1.77;;;1.77;;
5813;SDS011;2933;52.302;8.134;2023-05-14T16:58:31;1.63;;;1.60;;
5813;SDS011;2933;52.302;8.134;2023-05-14T17:03:34;1.63;;;1.53;;
5813;SDS011;2933;52.302;8.134;2023-05-14T17:08:35;2.00;;;1.77;;
5813;SDS011;2933;52.302;8.134;2023-05-14T17:13:37;1.73;;;1.63;;
5813;SDS011;2933;52.302;8.134;2023-05-14T17:18:39;5.40;;;1.87;;
5813;SDS011;2933;52.302;8.134;2023-05-14T17:23:41;4.70;;;3.70;;
5813;SDS011;2933;52.302;8.134;2023-05-14T17:28:43;3.20;;;2.37;;
5813;SDS011;2933;52.302;8.134;2023-05-14T17:33:45;12.70;;;8.13;;
5813;SDS011;2933;52.302;8.134;2023-05-14T17:38:47;2.70;;;2.60;;
5813;SDS011;2933;52.302;8.134;2023-05-14T17:43:48;2.33;;;2.23;;
5813;SDS011;2933;52.302;8.134;2023-05-14T17:48:53;2.43;;;2.33;;
5813;SDS011;2933;52.302;8.134;2023-05-14T17:53:54;4.23;;;2.60;;
5813;SDS011;2933;52.302;8.134;2023-05-14T17:58:56;2.30;;;2.20;;
5813;SDS011;2933;52.302;8.134;2023-05-14T18:04:00;2.47;;;2.27;;
5813;SDS011;2933;52.302;8.134;2023-05-14T18:09:01;2.30;;;2.03;;
5813;SDS011;2933;52.302;8.134;2023-05-14T18:14:03;2.37;;;2.23;;
5813;SDS011;2933;52.302;8.134;2023-05-14T18:19:06;2.10;;;2.00;;
5813;SDS011;2933;52.302;8.134;2023-05-14T18:24:07;2.20;;;2.10;;
5813;SDS011;2933;52.302;8.134;2023-05-14T18:29:09;2.47;;;2.37;;
5813;SDS011;2933;52.302;8.134;2023-05-14T18:34:12;2.00;;;1.90;;
5813;SDS011;2933;52.302;8.134;2023-05-14T18:39:13;2.40;;;2.30;;
5813;SDS011;2933;52.302;8.134;2023-05-14T18:44:15;2.37;;;2.23;;
5813;SDS011;2933;52.302;8.134;2023-05-14T18:49:18;2.00;;;1.90;;
5813;SDS011;2933;52.302;8.134;2023-05-14T18:54:19;1.93;;;1.83;;
5813;SDS011;2933;52.302;8.134;2023-05-14T18:59:21;2.20;;;2.10;;
5813;SDS011;2933;52.302;8.134;2023-05-14T19:04:26;3.93;;;2.20;;
5813;SDS011;2933;52.302;8.134;2023-05-14T19:09:28;2.63;;;2.50;;
5813;SDS011;2933;52.302;8.134;2023-05-14T19:14:29;2.67;;;2.57;;
5813;SDS011;2933;52.302;8.134;2023-05-14T19:19:32;2.30;;;2.20;;
5813;SDS011;2933;52.302;8.134;2023-05-14T19:24:34;2.57;;;2.47;;
5813;SDS011;2933;52.302;8.134;2023-05-14T19:29:36;2.87;;;2.67;;
5813;SDS011;2933;52.302;8.134;2023-05-14T19:34:39;2.60;;;2.50;;
5813;SDS011;2933;52.302;8.134;2023-05-14T19:39:41;4.90;;;2.60;;
5813;SDS011;2933;52.302;8.134;2023-05-14T19:44:42;3.10;;;2.83;;
5813;SDS011;2933;52.302;8.134;2023-05-14T19:49:45;2.70;;;2.57;;
5813;SDS011;2933;52.302;8.134;2023-05-14T19:54:47;2.90;;;2.80;;
5813;SDS011;2933;52.302;8.134;2023-05-14T19:59:48;2.90;;;2.80;;
5813;SDS011;2933;52.302;8.134;2023-05-14T20:04:51;3.00;;;2.63;;
5813;SDS011;2933;52.302;8.134;2023-05-14T20:09:55;2.50;;;2.40;;
5813;SDS011;2933;52.302;8.134;2023-05-14T20:14:57;3.30;;;2.50;;
5813;SDS011;2933;52.302;8.134;2023-05-14T20:20:00;2.77;;;2.67;;
5813;SDS011;2933;52.302;8.134;2023-05-14T20:25:02;2.93;;;2.73;;
5813;SDS011;2933;52.302;8.134;2023-05-14T20:30:04;2.63;;;2.47;;
5813;SDS011;2933;52.302;8.134;2023-05-14T20:35:08;2.70;;;2.33;;
5813;SDS011;2933;52.302;8.134;2023-05-14T20:40:10;3.30;;;3.17;;
5813;SDS011;2933;52.302;8.134;2023-05-14T20:45:12;3.83;;;2.83;;
5813;SDS011;2933;52.302;8.134;2023-05-14T20:50:15;3.40;;;3.20;;
5813;SDS011;2933;52.302;8.134;2023-05-14T20:55:16;4.53;;;3.23;;
5813;SDS011;2933;52.302;8.134;2023-05-14T21:00:18;3.47;;;3.17;;
5813;SDS011;2933;52.302;8.134;2023-05-14T21:05:21;3.40;;;3.17;;
5813;SDS011;2933;52.302;8.134;2023-05-14T21:10:23;3.80;;;3.40;;
5813;SDS011;2933;52.302;8.134;2023-05-14T21:15:25;3.40;;;3.30;;
5813;SDS011;2933;52.302;8.134;2023-05-14T21:20:28;4.03;;;3.83;;
5813;SDS011;2933;52.302;8.134;2023-05-14T21:25:29;3.60;;;3.40;;
5813;SDS011;2933;52.302;8.134;2023-05-14T21:30:31;4.03;;;3.80;;
5813;SDS011;2933;52.302;8.134;2023-05-14T21:35:34;3.27;;;3.03;;
5813;SDS011;2933;52.302;8.134;2023-05-14T21:40:35;3.50;;;3.20;;
5813;SDS011;2933;52.302;8.134;2023-05-14T21:45:37;4.00;;;3.13;;
5813;SDS011;2933;52.302;8.134;2023-05-14T21:50:40;4.30;;;3.40;;
5813;SDS011;2933;52.302;8.134;2023-05-14T21:55:41;3.40;;;3.20;;
5813;SDS011;2933;52.302;8.134;2023-05-14T22:00:43;3.70;;;3.50;;
5813;SDS011;2933;52.302;8.134;2023-05-14T22:05:46;4.00;;;3.70;;
5813;SDS011;2933;52.302;8.134;2023-05-14T22:10:48;4.40;;;3.67;;
5813;SDS011;2933;52.302;8.134;2023-05-14T22:15:49;7.93;;;3.70;;
5813;SDS011;2933;52.302;8.134;2023-05-14T22:20:52;15.77;;;4.00;;
5813;SDS011;2933;52.302;8.134;2023-05-14T22:25:54;5.40;;;4.10;;
5813;SDS011;2933;52.302;8.134;2023-05-14T22:30:55;4.23;;;3.93;;
5813;SDS011;2933;52.302;8.134;2023-05-14T22:36:00;4.80;;;4.27;;
5813;SDS011;2933;52.302;8.134;2023-05-14T22:41:01;4.13;;;3.83;;
5813;SDS011;2933;52.302;8.134;2023-05-14T22:46:03;4.33;;;3.97;;
5813;SDS011;2933;52.302;8.134;2023-05-14T22:51:06;4.20;;;3.90;;
5813;SDS011;2933;52.302;8.134;2023-05-14T22:56:08;3.57;;;3.37;;
5813;SDS011;2933;52.302;8.134;2023-05-14T23:01:09;4.23;;;3.50;;
5813;SDS011;2933;52.302;8.134;2023-05-14T23:06:12;6.37;;;4.47;;
5813;SDS011;2933;52.302;8.134;2023-05-14T23:11:14;4.50;;;4.10;;
5813;SDS011;2933;52.302;8.134;2023-05-14T23:16:15;5.07;;;4.67;;
5813;SDS011;2933;52.302;8.134;2023-05-14T23:21:18;4.50;;;4.10;;
5813;SDS011;2933;52.302;8.134;2023-05-14T23:26:20;4.97;;;4.47;;
5813;SDS011;2933;52.302;8.134;2023-05-14T23:31:21;5.33;;;4.67;;
5813;SDS011;2933;52.302;8.134;2023-05-14T23:36:24;4.20;;;3.90;;
5813;SDS011;2933;52.302;8.134;2023-05-14T23:41:26;5.03;;;4.53;;
5813;SDS011;2933;52.302;8.134;2023-05-14T23:46:27;4.20;;;3.90;;
5813;SDS011;2933;52.302;8.134;2023-05-14T23:51:30;5.47;;;4.97;;
5813;SDS011;2933;52.302;8.134;2023-05-14T23:56:32;5.53;;;4.60;;
